sensor_id;sensor_type;location;lat;lon;timestamp;P1;durP1;ratioP1;P2;durP2;ratioP2
15968;SDS011;8085;53.472;9.794;2022-12-18T00:02:01;11.20;;;6.73;;
15968;SDS011;8085;53.472;9.794;2022-12-18T00:04:28;11.87;;;6.87;;
15968;SDS011;8085;53.472;9.794;2022-12-18T00:06:55;9.73;;;6.00;;
15968;SDS011;8085;53.472;9.794;2022-12-18T00:09:22;13.83;;;6.90;;
15968;SDS011;8085;53.472;9.794;2022-12-18T00:11:50;10.63;;;6.40;;
15968;SDS011;8085;53.472;9.794;2022-12-18T00:14:18;12.57;;;7.10;;
15968;SDS011;8085;53.472;9.794;2022-12-18T00:16:45;14.73;;;7.10;;
15968;SDS011;8085;53.472;9.794;2022-12-18T00:19:12;10.40;;;6.87;;
15968;SDS011;8085;53.472;9.794;2022-12-18T00:21:40;13.00;;;7.00;;
15968;SDS011;8085;53.472;9.794;2022-12-18T00:24:08;9.50;;;6.23;;
15968;SDS011;8085;53.472;9.794;2022-12-18T00:26:36;14.20;;;7.37;;
15968;SDS011;8085;53.472;9.794;2022-12-18T00:29:05;16.53;;;7.40;;
15968;SDS011;8085;53.472;9.794;2022-12-18T00:31:35;11.70;;;7.07;;
15968;SDS011;8085;53.472;9.794;2022-12-18T00:34:03;14.60;;;6.67;;
15968;SDS011;8085;53.472;9.794;2022-12-18T00:36:30;12.57;;;6.70;;
15968;SDS011;8085;53.472;9.794;2022-12-18T00:38:58;14.10;;;6.60;;
15968;SDS011;8085;53.472;9.794;2022-12-18T00:41:26;14.87;;;6.90;;
15968;SDS011;8085;53.472;9.794;2022-12-18T00:44:15;12.50;;;6.37;;
15968;SDS011;8085;53.472;9.794;2022-12-18T00:46:45;12.50;;;6.67;;
15968;SDS011;8085;53.472;9.794;2022-12-18T00:49:13;13.43;;;7.03;;
15968;SDS011;8085;53.472;9.794;2022-12-18T00:51:40;12.13;;;6.57;;
15968;SDS011;8085;53.472;9.794;2022-12-18T00:54:07;9.97;;;6.13;;
15968;SDS011;8085;53.472;9.794;2022-12-18T00:56:35;9.90;;;5.70;;
15968;SDS011;8085;53.472;9.794;2022-12-18T00:59:02;13.60;;;7.03;;
15968;SDS011;8085;53.472;9.794;2022-12-18T01:01:29;10.57;;;6.27;;
15968;SDS011;8085;53.472;9.794;2022-12-18T01:03:59;12.40;;;6.73;;
15968;SDS011;8085;53.472;9.794;2022-12-18T01:06:26;10.70;;;6.40;;
15968;SDS011;8085;53.472;9.794;2022-12-18T01:08:52;14.57;;;6.53;;
15968;SDS011;8085;53.472;9.794;2022-12-18T01:11:19;12.97;;;6.60;;
15968;SDS011;8085;53.472;9.794;2022-12-18T01:13:47;11.07;;;6.10;;
15968;SDS011;8085;53.472;9.794;2022-12-18T01:16:15;11.23;;;6.10;;
15968;SDS011;8085;53.472;9.794;2022-12-18T01:18:42;12.13;;;6.63;;
15968;SDS011;8085;53.472;9.794;2022-12-18T01:21:11;10.00;;;6.07;;
15968;SDS011;8085;53.472;9.794;2022-12-18T01:23:39;12.80;;;6.30;;
15968;SDS011;8085;53.472;9.794;2022-12-18T01:26:14;10.77;;;6.70;;
15968;SDS011;8085;53.472;9.794;2022-12-18T01:28:42;10.40;;;6.27;;
15968;SDS011;8085;53.472;9.794;2022-12-18T01:31:14;9.20;;;6.30;;
15968;SDS011;8085;53.472;9.794;2022-12-18T01:33:43;12.47;;;7.10;;
15968;SDS011;8085;53.472;9.794;2022-12-18T01:36:16;9.70;;;5.67;;
15968;SDS011;8085;53.472;9.794;2022-12-18T01:38:44;10.73;;;6.20;;
15968;SDS011;8085;53.472;9.794;2022-12-18T01:41:12;15.73;;;6.73;;
15968;SDS011;8085;53.472;9.794;2022-12-18T01:43:43;10.93;;;6.43;;
15968;SDS011;8085;53.472;9.794;2022-12-18T01:46:11;10.50;;;5.90;;
15968;SDS011;8085;53.472;9.794;2022-12-18T01:48:38;9.90;;;5.80;;
15968;SDS011;8085;53.472;9.794;2022-12-18T01:51:06;12.37;;;6.13;;
15968;SDS011;8085;53.472;9.794;2022-12-18T01:53:37;12.33;;;6.27;;
15968;SDS011;8085;53.472;9.794;2022-12-18T01:56:06;11.20;;;6.03;;
15968;SDS011;8085;53.472;9.794;2022-12-18T01:58:35;12.00;;;6.10;;
15968;SDS011;8085;53.472;9.794;2022-12-18T02:01:06;9.47;;;5.70;;
15968;SDS011;8085;53.472;9.794;2022-12-18T02:03:33;10.03;;;6.37;;
15968;SDS011;8085;53.472;9.794;2022-12-18T02:06:01;8.80;;;5.30;;
15968;SDS011;8085;53.472;9.794;2022-12-18T02:08:39;12.27;;;5.53;;
15968;SDS011;8085;53.472;9.794;2022-12-18T02:11:15;10.10;;;6.00;;
15968;SDS011;8085;53.472;9.794;2022-12-18T02:13:51;10.03;;;5.53;;
15968;SDS011;8085;53.472;9.794;2022-12-18T02:16:25;9.97;;;5.23;;
15968;SDS011;8085;53.472;9.794;2022-12-18T02:18:56;11.20;;;5.63;;
15968;SDS011;8085;53.472;9.794;2022-12-18T02:21:28;9.60;;;5.77;;
15968;SDS011;8085;53.472;9.794;2022-12-18T02:24:08;8.83;;;5.63;;
15968;SDS011;8085;53.472;9.794;2022-12-18T02:26:50;12.27;;;5.97;;
15968;SDS011;8085;53.472;9.794;2022-12-18T02:29:21;12.43;;;6.03;;
15968;SDS011;8085;53.472;9.794;2022-12-18T02:31:53;9.97;;;5.97;;
15968;SDS011;8085;53.472;9.794;2022-12-18T02:34:22;10.73;;;5.30;;
15968;SDS011;8085;53.472;9.794;2022-12-18T02:36:57;8.80;;;5.43;;
15968;SDS011;8085;53.472;9.794;2022-12-18T02:39:27;9.67;;;5.63;;
15968;SDS011;8085;53.472;9.794;2022-12-18T02:41:57;9.33;;;5.73;;
15968;SDS011;8085;53.472;9.794;2022-12-18T02:44:27;12.63;;;6.13;;
15968;SDS011;8085;53.472;9.794;2022-12-18T02:46:54;11.07;;;6.03;;
15968;SDS011;8085;53.472;9.794;2022-12-18T02:49:32;11.37;;;6.23;;
15968;SDS011;8085;53.472;9.794;2022-12-18T02:52:07;11.17;;;5.60;;
15968;SDS011;8085;53.472;9.794;2022-12-18T02:54:55;9.97;;;5.70;;
15968;SDS011;8085;53.472;9.794;2022-12-18T02:57:30;11.47;;;5.53;;
15968;SDS011;8085;53.472;9.794;2022-12-18T03:00:03;9.50;;;5.90;;
15968;SDS011;8085;53.472;9.794;2022-12-18T03:02:34;10.93;;;6.20;;
15968;SDS011;8085;53.472;9.794;2022-12-18T03:05:05;9.90;;;5.93;;
15968;SDS011;8085;53.472;9.794;2022-12-18T03:07:38;9.27;;;5.33;;
15968;SDS011;8085;53.472;9.794;2022-12-18T03:10:11;9.53;;;6.00;;
15968;SDS011;8085;53.472;9.794;2022-12-18T03:12:42;8.97;;;5.53;;
15968;SDS011;8085;53.472;9.794;2022-12-18T03:15:14;9.00;;;5.60;;
15968;SDS011;8085;53.472;9.794;2022-12-18T03:17:44;9.17;;;5.30;;
15968;SDS011;8085;53.472;9.794;2022-12-18T03:20:17;8.07;;;5.33;;
15968;SDS011;8085;53.472;9.794;2022-12-18T03:22:47;10.17;;;5.83;;
15968;SDS011;8085;53.472;9.794;2022-12-18T03:25:19;9.83;;;5.87;;
15968;SDS011;8085;53.472;9.794;2022-12-18T03:27:49;11.40;;;6.20;;
15968;SDS011;8085;53.472;9.794;2022-12-18T03:30:20;7.93;;;5.30;;
15968;SDS011;8085;53.472;9.794;2022-12-18T03:32:47;8.83;;;4.90;;
15968;SDS011;8085;53.472;9.794;2022-12-18T03:35:21;8.37;;;5.33;;
15968;SDS011;8085;53.472;9.794;2022-12-18T03:37:50;9.87;;;5.70;;
15968;SDS011;8085;53.472;9.794;2022-12-18T03:40:17;8.83;;;5.37;;
15968;SDS011;8085;53.472;9.794;2022-12-18T03:42:46;8.47;;;4.87;;
15968;SDS011;8085;53.472;9.794;2022-12-18T03:45:19;9.23;;;5.07;;
15968;SDS011;8085;53.472;9.794;2022-12-18T03:47:52;9.27;;;4.83;;
15968;SDS011;8085;53.472;9.794;2022-12-18T03:50:27;7.27;;;4.67;;
15968;SDS011;8085;53.472;9.794;2022-12-18T03:53:00;10.13;;;4.50;;
15968;SDS011;8085;53.472;9.794;2022-12-18T03:55:34;8.77;;;4.60;;
15968;SDS011;8085;53.472;9.794;2022-12-18T03:58:03;9.47;;;5.17;;
15968;SDS011;8085;53.472;9.794;2022-12-18T04:00:33;10.53;;;5.03;;
15968;SDS011;8085;53.472;9.794;2022-12-18T04:03:01;8.93;;;5.70;;
15968;SDS011;8085;53.472;9.794;2022-12-18T04:05:30;8.97;;;4.30;;
15968;SDS011;8085;53.472;9.794;2022-12-18T04:08:00;7.17;;;4.30;;
15968;SDS011;8085;53.472;9.794;2022-12-18T04:10:27;7.87;;;4.60;;
15968;SDS011;8085;53.472;9.794;2022-12-18T04:12:55;9.10;;;4.90;;
15968;SDS011;8085;53.472;9.794;2022-12-18T04:15:23;7.60;;;4.73;;
15968;SDS011;8085;53.472;9.794;2022-12-18T04:17:51;10.73;;;5.03;;
15968;SDS011;8085;53.472;9.794;2022-12-18T04:20:17;8.23;;;4.80;;
15968;SDS011;8085;53.472;9.794;2022-12-18T04:22:44;10.00;;;5.33;;
15968;SDS011;8085;53.472;9.794;2022-12-18T04:25:11;8.67;;;5.13;;
15968;SDS011;8085;53.472;9.794;2022-12-18T04:27:39;7.63;;;5.00;;
15968;SDS011;8085;53.472;9.794;2022-12-18T04:30:06;9.40;;;5.37;;
15968;SDS011;8085;53.472;9.794;2022-12-18T04:32:36;8.70;;;4.93;;
15968;SDS011;8085;53.472;9.794;2022-12-18T04:35:03;9.93;;;5.80;;
15968;SDS011;8085;53.472;9.794;2022-12-18T04:37:35;8.30;;;5.07;;
15968;SDS011;8085;53.472;9.794;2022-12-18T04:40:02;8.63;;;5.33;;
15968;SDS011;8085;53.472;9.794;2022-12-18T04:42:29;12.07;;;6.07;;
15968;SDS011;8085;53.472;9.794;2022-12-18T04:44:56;10.37;;;6.00;;
15968;SDS011;8085;53.472;9.794;2022-12-18T04:47:23;11.37;;;5.87;;
15968;SDS011;8085;53.472;9.794;2022-12-18T04:49:51;10.73;;;5.63;;
15968;SDS011;8085;53.472;9.794;2022-12-18T04:52:18;11.03;;;5.80;;
15968;SDS011;8085;53.472;9.794;2022-12-18T04:54:45;9.10;;;5.60;;
15968;SDS011;8085;53.472;9.794;2022-12-18T04:57:11;9.47;;;5.73;;
15968;SDS011;8085;53.472;9.794;2022-12-18T04:59:39;10.63;;;5.27;;
15968;SDS011;8085;53.472;9.794;2022-12-18T05:02:06;11.13;;;5.77;;
15968;SDS011;8085;53.472;9.794;2022-12-18T05:04:33;12.13;;;6.20;;
15968;SDS011;8085;53.472;9.794;2022-12-18T05:07:01;9.50;;;5.83;;
15968;SDS011;8085;53.472;9.794;2022-12-18T05:09:28;10.03;;;6.03;;
15968;SDS011;8085;53.472;9.794;2022-12-18T05:11:54;12.10;;;6.40;;
15968;SDS011;8085;53.472;9.794;2022-12-18T05:14:21;10.97;;;6.67;;
15968;SDS011;8085;53.472;9.794;2022-12-18T05:16:48;10.50;;;5.83;;
15968;SDS011;8085;53.472;9.794;2022-12-18T05:19:15;11.13;;;5.70;;
15968;SDS011;8085;53.472;9.794;2022-12-18T05:21:42;14.17;;;5.83;;
15968;SDS011;8085;53.472;9.794;2022-12-18T05:24:10;12.07;;;6.00;;
15968;SDS011;8085;53.472;9.794;2022-12-18T05:26:37;11.03;;;6.27;;
15968;SDS011;8085;53.472;9.794;2022-12-18T05:29:03;11.67;;;6.13;;
15968;SDS011;8085;53.472;9.794;2022-12-18T05:31:30;11.80;;;6.07;;
15968;SDS011;8085;53.472;9.794;2022-12-18T05:33:57;15.03;;;6.07;;
15968;SDS011;8085;53.472;9.794;2022-12-18T05:36:24;9.70;;;5.27;;
15968;SDS011;8085;53.472;9.794;2022-12-18T05:38:51;10.37;;;5.53;;
15968;SDS011;8085;53.472;9.794;2022-12-18T05:41:19;10.87;;;5.93;;
15968;SDS011;8085;53.472;9.794;2022-12-18T05:43:45;11.60;;;6.50;;
15968;SDS011;8085;53.472;9.794;2022-12-18T05:46:13;9.10;;;5.37;;
15968;SDS011;8085;53.472;9.794;2022-12-18T05:48:42;13.07;;;5.93;;
15968;SDS011;8085;53.472;9.794;2022-12-18T05:51:10;10.27;;;5.80;;
15968;SDS011;8085;53.472;9.794;2022-12-18T05:53:39;10.90;;;5.97;;
15968;SDS011;8085;53.472;9.794;2022-12-18T05:56:08;13.37;;;6.47;;
15968;SDS011;8085;53.472;9.794;2022-12-18T05:58:37;11.27;;;6.23;;
15968;SDS011;8085;53.472;9.794;2022-12-18T06:01:08;12.57;;;6.10;;
15968;SDS011;8085;53.472;9.794;2022-12-18T06:03:37;9.83;;;6.17;;
15968;SDS011;8085;53.472;9.794;2022-12-18T06:06:04;10.47;;;5.50;;
15968;SDS011;8085;53.472;9.794;2022-12-18T06:08:38;9.03;;;5.77;;
15968;SDS011;8085;53.472;9.794;2022-12-18T06:11:05;11.77;;;5.67;;
15968;SDS011;8085;53.472;9.794;2022-12-18T06:13:31;12.63;;;6.40;;
15968;SDS011;8085;53.472;9.794;2022-12-18T06:16:02;11.30;;;6.37;;
15968;SDS011;8085;53.472;9.794;2022-12-18T06:18:29;12.07;;;5.93;;
15968;SDS011;8085;53.472;9.794;2022-12-18T06:20:56;8.80;;;5.17;;
15968;SDS011;8085;53.472;9.794;2022-12-18T06:23:24;11.03;;;6.20;;
15968;SDS011;8085;53.472;9.794;2022-12-18T06:25:51;13.33;;;6.03;;
15968;SDS011;8085;53.472;9.794;2022-12-18T06:28:18;11.57;;;6.03;;
15968;SDS011;8085;53.472;9.794;2022-12-18T06:30:45;11.07;;;6.40;;
15968;SDS011;8085;53.472;9.794;2022-12-18T06:33:15;11.10;;;6.20;;
15968;SDS011;8085;53.472;9.794;2022-12-18T06:35:42;9.80;;;5.87;;
15968;SDS011;8085;53.472;9.794;2022-12-18T06:38:08;12.90;;;6.80;;
15968;SDS011;8085;53.472;9.794;2022-12-18T06:40:36;12.03;;;6.13;;
15968;SDS011;8085;53.472;9.794;2022-12-18T06:43:03;15.10;;;6.67;;
15968;SDS011;8085;53.472;9.794;2022-12-18T06:45:30;8.87;;;6.13;;
15968;SDS011;8085;53.472;9.794;2022-12-18T06:47:57;10.90;;;5.73;;
15968;SDS011;8085;53.472;9.794;2022-12-18T06:50:25;11.93;;;5.80;;
15968;SDS011;8085;53.472;9.794;2022-12-18T06:52:53;11.43;;;6.30;;
15968;SDS011;8085;53.472;9.794;2022-12-18T06:55:19;11.13;;;6.93;;
15968;SDS011;8085;53.472;9.794;2022-12-18T06:57:46;13.17;;;6.57;;
15968;SDS011;8085;53.472;9.794;2022-12-18T07:00:13;11.93;;;6.63;;
15968;SDS011;8085;53.472;9.794;2022-12-18T07:02:40;9.53;;;6.07;;
15968;SDS011;8085;53.472;9.794;2022-12-18T07:05:07;11.37;;;6.10;;
15968;SDS011;8085;53.472;9.794;2022-12-18T07:07:35;9.63;;;5.97;;
15968;SDS011;8085;53.472;9.794;2022-12-18T07:10:03;12.73;;;6.30;;
15968;SDS011;8085;53.472;9.794;2022-12-18T07:12:30;10.70;;;5.57;;
15968;SDS011;8085;53.472;9.794;2022-12-18T07:14:57;11.07;;;6.30;;
15968;SDS011;8085;53.472;9.794;2022-12-18T07:17:24;11.23;;;6.20;;
15968;SDS011;8085;53.472;9.794;2022-12-18T07:19:51;9.63;;;5.73;;
15968;SDS011;8085;53.472;9.794;2022-12-18T07:22:18;9.60;;;6.13;;
15968;SDS011;8085;53.472;9.794;2022-12-18T07:24:46;14.00;;;6.53;;
15968;SDS011;8085;53.472;9.794;2022-12-18T07:27:12;11.20;;;5.63;;
15968;SDS011;8085;53.472;9.794;2022-12-18T07:29:39;11.50;;;5.63;;
15968;SDS011;8085;53.472;9.794;2022-12-18T07:32:06;14.23;;;6.73;;
15968;SDS011;8085;53.472;9.794;2022-12-18T07:34:33;9.27;;;5.40;;
15968;SDS011;8085;53.472;9.794;2022-12-18T07:37:00;10.37;;;6.17;;
15968;SDS011;8085;53.472;9.794;2022-12-18T07:39:27;11.23;;;5.70;;
15968;SDS011;8085;53.472;9.794;2022-12-18T07:41:55;10.97;;;5.27;;
15968;SDS011;8085;53.472;9.794;2022-12-18T07:44:39;9.60;;;5.23;;
15968;SDS011;8085;53.472;9.794;2022-12-18T07:47:06;9.07;;;5.80;;
15968;SDS011;8085;53.472;9.794;2022-12-18T07:49:33;9.63;;;5.87;;
15968;SDS011;8085;53.472;9.794;2022-12-18T07:52:00;10.10;;;5.83;;
15968;SDS011;8085;53.472;9.794;2022-12-18T07:54:27;13.27;;;5.77;;
15968;SDS011;8085;53.472;9.794;2022-12-18T07:56:55;11.33;;;5.90;;
15968;SDS011;8085;53.472;9.794;2022-12-18T07:59:22;11.87;;;5.87;;
15968;SDS011;8085;53.472;9.794;2022-12-18T08:01:49;13.73;;;6.53;;
15968;SDS011;8085;53.472;9.794;2022-12-18T08:04:16;9.53;;;6.20;;
15968;SDS011;8085;53.472;9.794;2022-12-18T08:06:43;14.63;;;6.33;;
15968;SDS011;8085;53.472;9.794;2022-12-18T08:09:10;11.40;;;5.47;;
15968;SDS011;8085;53.472;9.794;2022-12-18T08:11:37;11.37;;;5.50;;
15968;SDS011;8085;53.472;9.794;2022-12-18T08:14:05;10.40;;;5.93;;
15968;SDS011;8085;53.472;9.794;2022-12-18T08:16:31;11.03;;;5.63;;
15968;SDS011;8085;53.472;9.794;2022-12-18T08:18:58;8.23;;;4.87;;
15968;SDS011;8085;53.472;9.794;2022-12-18T08:21:26;11.13;;;5.87;;
15968;SDS011;8085;53.472;9.794;2022-12-18T08:23:54;11.17;;;5.57;;
15968;SDS011;8085;53.472;9.794;2022-12-18T08:26:22;8.93;;;4.93;;
15968;SDS011;8085;53.472;9.794;2022-12-18T08:28:50;10.77;;;5.30;;
15968;SDS011;8085;53.472;9.794;2022-12-18T08:31:18;13.40;;;5.43;;
15968;SDS011;8085;53.472;9.794;2022-12-18T08:33:47;11.53;;;5.33;;
15968;SDS011;8085;53.472;9.794;2022-12-18T08:36:15;9.37;;;5.10;;
15968;SDS011;8085;53.472;9.794;2022-12-18T08:38:42;7.10;;;5.07;;
15968;SDS011;8085;53.472;9.794;2022-12-18T08:41:10;8.43;;;4.87;;
15968;SDS011;8085;53.472;9.794;2022-12-18T08:43:38;8.93;;;5.53;;
15968;SDS011;8085;53.472;9.794;2022-12-18T08:46:25;7.43;;;4.73;;
15968;SDS011;8085;53.472;9.794;2022-12-18T08:48:53;8.67;;;5.03;;
15968;SDS011;8085;53.472;9.794;2022-12-18T08:51:21;10.37;;;5.30;;
15968;SDS011;8085;53.472;9.794;2022-12-18T08:53:48;6.87;;;4.70;;
15968;SDS011;8085;53.472;9.794;2022-12-18T08:56:15;8.60;;;4.53;;
15968;SDS011;8085;53.472;9.794;2022-12-18T08:58:42;12.57;;;5.00;;
15968;SDS011;8085;53.472;9.794;2022-12-18T09:01:10;11.03;;;6.43;;
15968;SDS011;8085;53.472;9.794;2022-12-18T09:03:39;9.90;;;5.97;;
15968;SDS011;8085;53.472;9.794;2022-12-18T09:06:07;10.03;;;5.80;;
15968;SDS011;8085;53.472;9.794;2022-12-18T09:08:34;10.13;;;5.90;;
15968;SDS011;8085;53.472;9.794;2022-12-18T09:11:01;9.97;;;4.90;;
15968;SDS011;8085;53.472;9.794;2022-12-18T09:13:28;10.67;;;6.17;;
15968;SDS011;8085;53.472;9.794;2022-12-18T09:15:55;8.97;;;4.93;;
15968;SDS011;8085;53.472;9.794;2022-12-18T09:18:22;12.80;;;5.37;;
15968;SDS011;8085;53.472;9.794;2022-12-18T09:20:51;10.87;;;6.17;;
15968;SDS011;8085;53.472;9.794;2022-12-18T09:23:18;11.40;;;5.47;;
15968;SDS011;8085;53.472;9.794;2022-12-18T09:25:44;9.93;;;5.43;;
15968;SDS011;8085;53.472;9.794;2022-12-18T09:28:12;11.63;;;5.27;;
15968;SDS011;8085;53.472;9.794;2022-12-18T09:30:40;8.27;;;4.93;;
15968;SDS011;8085;53.472;9.794;2022-12-18T09:33:09;11.40;;;5.10;;
15968;SDS011;8085;53.472;9.794;2022-12-18T09:35:36;9.13;;;4.93;;
15968;SDS011;8085;53.472;9.794;2022-12-18T09:38:07;8.03;;;5.03;;
15968;SDS011;8085;53.472;9.794;2022-12-18T09:40:39;9.27;;;5.40;;
15968;SDS011;8085;53.472;9.794;2022-12-18T09:43:11;9.30;;;5.43;;
15968;SDS011;8085;53.472;9.794;2022-12-18T09:45:44;10.70;;;5.07;;
15968;SDS011;8085;53.472;9.794;2022-12-18T09:48:15;8.70;;;4.80;;
15968;SDS011;8085;53.472;9.794;2022-12-18T09:50:45;7.80;;;4.90;;
15968;SDS011;8085;53.472;9.794;2022-12-18T09:53:15;12.67;;;5.87;;
15968;SDS011;8085;53.472;9.794;2022-12-18T09:55:45;11.73;;;5.30;;
15968;SDS011;8085;53.472;9.794;2022-12-18T09:58:15;9.73;;;4.90;;
15968;SDS011;8085;53.472;9.794;2022-12-18T10:00:50;11.57;;;5.27;;
15968;SDS011;8085;53.472;9.794;2022-12-18T10:03:17;9.10;;;4.60;;
15968;SDS011;8085;53.472;9.794;2022-12-18T10:05:46;8.70;;;4.53;;
15968;SDS011;8085;53.472;9.794;2022-12-18T10:08:24;11.30;;;5.30;;
15968;SDS011;8085;53.472;9.794;2022-12-18T10:10:57;8.30;;;5.20;;
15968;SDS011;8085;53.472;9.794;2022-12-18T10:13:30;7.83;;;4.80;;
15968;SDS011;8085;53.472;9.794;2022-12-18T10:16:06;9.77;;;5.73;;
15968;SDS011;8085;53.472;9.794;2022-12-18T10:21:42;8.67;;;4.53;;
15968;SDS011;8085;53.472;9.794;2022-12-18T10:24:24;9.30;;;4.83;;
15968;SDS011;8085;53.472;9.794;2022-12-18T10:26:59;10.13;;;4.40;;
15968;SDS011;8085;53.472;9.794;2022-12-18T10:29:38;9.17;;;5.33;;
15968;SDS011;8085;53.472;9.794;2022-12-18T10:32:05;9.87;;;5.30;;
15968;SDS011;8085;53.472;9.794;2022-12-18T10:34:33;8.83;;;4.67;;
15968;SDS011;8085;53.472;9.794;2022-12-18T10:37:00;8.07;;;5.17;;
15968;SDS011;8085;53.472;9.794;2022-12-18T10:39:29;12.97;;;7.67;;
15968;SDS011;8085;53.472;9.794;2022-12-18T10:41:59;6.73;;;4.77;;
15968;SDS011;8085;53.472;9.794;2022-12-18T10:44:38;14.20;;;8.43;;
15968;SDS011;8085;53.472;9.794;2022-12-18T10:47:05;8.80;;;5.80;;
15968;SDS011;8085;53.472;9.794;2022-12-18T10:49:37;9.70;;;4.60;;
15968;SDS011;8085;53.472;9.794;2022-12-18T10:52:14;5.87;;;4.10;;
15968;SDS011;8085;53.472;9.794;2022-12-18T10:54:49;9.00;;;5.17;;
15968;SDS011;8085;53.472;9.794;2022-12-18T10:57:29;13.33;;;6.27;;
15968;SDS011;8085;53.472;9.794;2022-12-18T11:00:22;8.40;;;4.67;;
15968;SDS011;8085;53.472;9.794;2022-12-18T11:02:54;7.73;;;4.40;;
15968;SDS011;8085;53.472;9.794;2022-12-18T11:05:29;7.77;;;5.07;;
15968;SDS011;8085;53.472;9.794;2022-12-18T11:07:58;9.37;;;4.80;;
15968;SDS011;8085;53.472;9.794;2022-12-18T11:10:28;8.87;;;5.00;;
15968;SDS011;8085;53.472;9.794;2022-12-18T11:13:08;9.97;;;6.40;;
15968;SDS011;8085;53.472;9.794;2022-12-18T11:15:39;6.93;;;4.27;;
15968;SDS011;8085;53.472;9.794;2022-12-18T11:18:14;10.83;;;7.07;;
15968;SDS011;8085;53.472;9.794;2022-12-18T11:20:43;8.67;;;4.97;;
15968;SDS011;8085;53.472;9.794;2022-12-18T11:23:17;11.90;;;6.77;;
15968;SDS011;8085;53.472;9.794;2022-12-18T11:25:50;24.10;;;14.50;;
15968;SDS011;8085;53.472;9.794;2022-12-18T11:28:27;20.40;;;11.30;;
15968;SDS011;8085;53.472;9.794;2022-12-18T11:31:24;10.60;;;6.90;;
15968;SDS011;8085;53.472;9.794;2022-12-18T11:33:58;6.70;;;4.33;;
15968;SDS011;8085;53.472;9.794;2022-12-18T11:36:28;9.47;;;5.50;;
15968;SDS011;8085;53.472;9.794;2022-12-18T11:38:59;8.07;;;4.80;;
15968;SDS011;8085;53.472;9.794;2022-12-18T11:41:30;8.50;;;4.63;;
15968;SDS011;8085;53.472;9.794;2022-12-18T11:44:26;9.27;;;4.43;;
15968;SDS011;8085;53.472;9.794;2022-12-18T11:46:59;9.83;;;6.30;;
15968;SDS011;8085;53.472;9.794;2022-12-18T11:49:31;11.20;;;5.33;;
15968;SDS011;8085;53.472;9.794;2022-12-18T11:52:01;9.23;;;5.00;;
15968;SDS011;8085;53.472;9.794;2022-12-18T11:54:31;7.23;;;4.47;;
15968;SDS011;8085;53.472;9.794;2022-12-18T11:56:58;5.77;;;3.57;;
15968;SDS011;8085;53.472;9.794;2022-12-18T11:59:33;5.63;;;3.60;;
15968;SDS011;8085;53.472;9.794;2022-12-18T12:02:14;10.60;;;4.10;;
15968;SDS011;8085;53.472;9.794;2022-12-18T12:04:55;6.60;;;4.03;;
15968;SDS011;8085;53.472;9.794;2022-12-18T12:07:34;5.17;;;3.37;;
15968;SDS011;8085;53.472;9.794;2022-12-18T12:10:13;5.87;;;3.60;;
15968;SDS011;8085;53.472;9.794;2022-12-18T12:12:55;6.27;;;4.00;;
15968;SDS011;8085;53.472;9.794;2022-12-18T12:15:36;9.60;;;5.10;;
15968;SDS011;8085;53.472;9.794;2022-12-18T12:18:16;6.93;;;3.47;;
15968;SDS011;8085;53.472;9.794;2022-12-18T12:20:49;6.00;;;3.70;;
15968;SDS011;8085;53.472;9.794;2022-12-18T12:23:26;6.37;;;3.93;;
15968;SDS011;8085;53.472;9.794;2022-12-18T12:26:01;5.30;;;3.33;;
15968;SDS011;8085;53.472;9.794;2022-12-18T12:28:36;15.10;;;7.87;;
15968;SDS011;8085;53.472;9.794;2022-12-18T12:31:20;24.00;;;11.27;;
15968;SDS011;8085;53.472;9.794;2022-12-18T12:33:56;21.17;;;9.07;;
15968;SDS011;8085;53.472;9.794;2022-12-18T12:36:31;13.43;;;7.00;;
15968;SDS011;8085;53.472;9.794;2022-12-18T12:39:06;11.90;;;6.13;;
15968;SDS011;8085;53.472;9.794;2022-12-18T12:41:37;9.13;;;4.13;;
15968;SDS011;8085;53.472;9.794;2022-12-18T12:44:25;8.37;;;5.27;;
15968;SDS011;8085;53.472;9.794;2022-12-18T12:46:56;5.90;;;3.33;;
15968;SDS011;8085;53.472;9.794;2022-12-18T12:49:29;7.73;;;4.47;;
15968;SDS011;8085;53.472;9.794;2022-12-18T12:52:00;4.77;;;3.30;;
15968;SDS011;8085;53.472;9.794;2022-12-18T12:54:31;8.63;;;3.90;;
15968;SDS011;8085;53.472;9.794;2022-12-18T12:57:01;11.50;;;4.67;;
15968;SDS011;8085;53.472;9.794;2022-12-18T12:59:36;8.17;;;3.93;;
15968;SDS011;8085;53.472;9.794;2022-12-18T13:02:13;6.13;;;3.60;;
15968;SDS011;8085;53.472;9.794;2022-12-18T13:04:49;5.80;;;3.83;;
15968;SDS011;8085;53.472;9.794;2022-12-18T13:07:24;8.17;;;4.20;;
15968;SDS011;8085;53.472;9.794;2022-12-18T13:10:11;6.80;;;3.70;;
15968;SDS011;8085;53.472;9.794;2022-12-18T13:12:50;4.47;;;2.63;;
15968;SDS011;8085;53.472;9.794;2022-12-18T13:15:24;8.03;;;3.00;;
15968;SDS011;8085;53.472;9.794;2022-12-18T13:18:11;14.17;;;7.23;;
15968;SDS011;8085;53.472;9.794;2022-12-18T13:20:43;7.73;;;4.20;;
15968;SDS011;8085;53.472;9.794;2022-12-18T13:23:26;6.80;;;2.70;;
15968;SDS011;8085;53.472;9.794;2022-12-18T13:25:58;4.77;;;2.87;;
15968;SDS011;8085;53.472;9.794;2022-12-18T13:34:33;4.40;;;2.50;;
15968;SDS011;8085;53.472;9.794;2022-12-18T13:43:30;6.63;;;2.60;;
15968;SDS011;8085;53.472;9.794;2022-12-18T13:46:19;5.47;;;2.70;;
15968;SDS011;8085;53.472;9.794;2022-12-18T13:48:52;5.60;;;2.93;;
15968;SDS011;8085;53.472;9.794;2022-12-18T13:51:24;7.83;;;3.87;;
15968;SDS011;8085;53.472;9.794;2022-12-18T13:53:53;7.93;;;3.77;;
15968;SDS011;8085;53.472;9.794;2022-12-18T13:56:23;7.10;;;3.50;;
15968;SDS011;8085;53.472;9.794;2022-12-18T13:59:15;7.13;;;3.93;;
15968;SDS011;8085;53.472;9.794;2022-12-18T14:01:47;5.97;;;3.43;;
15968;SDS011;8085;53.472;9.794;2022-12-18T14:04:18;7.33;;;4.40;;
15968;SDS011;8085;53.472;9.794;2022-12-18T14:06:49;9.20;;;4.50;;
15968;SDS011;8085;53.472;9.794;2022-12-18T14:09:18;7.43;;;4.00;;
15968;SDS011;8085;53.472;9.794;2022-12-18T14:11:49;7.63;;;4.20;;
15968;SDS011;8085;53.472;9.794;2022-12-18T14:14:18;8.33;;;5.07;;
15968;SDS011;8085;53.472;9.794;2022-12-18T14:16:46;7.03;;;4.30;;
15968;SDS011;8085;53.472;9.794;2022-12-18T14:19:14;7.73;;;4.73;;
15968;SDS011;8085;53.472;9.794;2022-12-18T14:21:45;9.83;;;5.23;;
15968;SDS011;8085;53.472;9.794;2022-12-18T14:24:14;10.53;;;5.50;;
15968;SDS011;8085;53.472;9.794;2022-12-18T14:26:42;10.37;;;5.67;;
15968;SDS011;8085;53.472;9.794;2022-12-18T14:29:20;10.10;;;5.43;;
15968;SDS011;8085;53.472;9.794;2022-12-18T14:32:09;11.50;;;6.30;;
15968;SDS011;8085;53.472;9.794;2022-12-18T14:34:39;13.47;;;6.80;;
15968;SDS011;8085;53.472;9.794;2022-12-18T14:37:07;12.07;;;6.97;;
15968;SDS011;8085;53.472;9.794;2022-12-18T14:39:36;14.90;;;8.70;;
15968;SDS011;8085;53.472;9.794;2022-12-18T14:42:03;15.07;;;10.87;;
15968;SDS011;8085;53.472;9.794;2022-12-18T14:44:31;14.47;;;8.00;;
15968;SDS011;8085;53.472;9.794;2022-12-18T14:46:58;15.03;;;7.83;;
15968;SDS011;8085;53.472;9.794;2022-12-18T14:49:26;15.43;;;8.30;;
15968;SDS011;8085;53.472;9.794;2022-12-18T14:51:56;15.97;;;8.60;;
15968;SDS011;8085;53.472;9.794;2022-12-18T14:54:25;15.87;;;8.20;;
15968;SDS011;8085;53.472;9.794;2022-12-18T14:56:54;17.07;;;8.20;;
15968;SDS011;8085;53.472;9.794;2022-12-18T14:59:26;19.77;;;9.33;;
15968;SDS011;8085;53.472;9.794;2022-12-18T15:02:00;17.27;;;8.90;;
15968;SDS011;8085;53.472;9.794;2022-12-18T15:04:31;15.67;;;9.23;;
15968;SDS011;8085;53.472;9.794;2022-12-18T15:07:04;17.63;;;9.50;;
15968;SDS011;8085;53.472;9.794;2022-12-18T15:09:35;19.50;;;9.77;;
15968;SDS011;8085;53.472;9.794;2022-12-18T15:12:03;20.53;;;10.77;;
15968;SDS011;8085;53.472;9.794;2022-12-18T15:14:31;17.77;;;9.60;;
15968;SDS011;8085;53.472;9.794;2022-12-18T15:17:03;18.77;;;9.80;;
15968;SDS011;8085;53.472;9.794;2022-12-18T15:19:33;19.70;;;10.90;;
15968;SDS011;8085;53.472;9.794;2022-12-18T15:22:03;18.53;;;10.13;;
15968;SDS011;8085;53.472;9.794;2022-12-18T15:24:30;21.77;;;11.03;;
15968;SDS011;8085;53.472;9.794;2022-12-18T15:26:58;21.90;;;12.07;;
15968;SDS011;8085;53.472;9.794;2022-12-18T15:29:26;25.00;;;11.90;;